首页
METAR-TAF:

METAR-TAF

机场 :

威靈頓國際機場

惠灵顿, 新西兰

纬度: 41-20S, 经度: 174-48E, 海拔: 12米

当前天气观测

该预报发布于28分钟前的00:00 UTC
风速24节,风向,有时为35节阵风
温度 14°C
湿度 77%
气压 1006 hPa
能见度10公里或以上

METAR: NZWN 160000Z AUTO 36024G35KT 9999 FEW025/// SCT031/// 14/10 Q1006

时间: 12:28 (00:28 UTC)

预报

该预报发布于51分钟前的23:37 UTC
预报有效从16日的 00点(UTC)到 17日的 06点(UTC)
风速18节,风向,有时为30节阵风
能见度10公里或以上
散云层高于2500英尺
多云层高于3500英尺
小阵雨
短暂存在
从 16日的 00点(UTC)到 16日的 04点(UTC)
能見度: 6000
散云层高于2000英尺, 塔状积云.
阵雨
几率 30% :
短暂存在
从 16日的 00点(UTC)到 16日的 03点(UTC)
能見度: 3000
散云层高于2000英尺, 积雨云.
阵雨, 冰雹
成为
从 16日的 06点(UTC)到 16日的 08点(UTC)
风速10节,风向北转东北
成为
从 16日的 16点(UTC)到 16日的 18点(UTC)
风速8节,风向东转东南
短暂存在
从 16日的 16点(UTC)到 16日的 18点(UTC)
能見度: 6000
成为
从 16日的 18点(UTC)到 16日的 20点(UTC)
风速10节,风向
短暂存在
从 16日的 18点(UTC)到 17日的 06点(UTC)
能見度: 4000
多云层高于1000英尺
成为
从 16日的 22点(UTC)到 17日的 00点(UTC)
风速15节,风向南转西南,有时为25节阵风

TAF: NZWN 152337Z 1600/1706 01018G30KT 9999 -SHRA SCT025 BKN035 TEMPO 1600/1604 6000 SHRA SCT020TCU PROB30 TEMPO 1600/1603 3000 SHRAGR SCT020CB BECMG 1606/1608 03010KT BECMG 1616/1618 12008KT TEMPO 1616/1618 6000 RA BECMG 1618/1620 18010KT TEMPO 1618/1706 4000 RA BKN010 BECMG 1622/1700 20015G25KT

超过4000个机场的气象观测和天气预报(METAR&TAF报告)。

可查询的气象台以黄色和红色小点在地图上表示。

将鼠标移到小点上方,可查看气象台名称。

然后点击查看天气观测和预报。

如需切换地图:点击带黑十字的绿色按钮放大地图;点击带横线的绿色按钮缩小地图;或者点击绿色箭头查看邻近地区的地图。


METAR-TAF: